createdAt,value
2017-08-06T00:00:12.233Z,16.69
2017-08-06T00:01:12.932Z,16.69
2017-08-06T00:02:13.246Z,16.73
2017-08-06T00:03:13.003Z,16.8
2017-08-06T00:04:12.709Z,16.87
2017-08-06T00:05:13.098Z,16.9
2017-08-06T00:06:13.105Z,16.84
2017-08-06T00:07:12.829Z,16.9
2017-08-06T00:08:13.488Z,17.03
2017-08-06T00:09:13.175Z,17.02
2017-08-06T00:10:13.558Z,16.95
2017-08-06T00:11:13.646Z,17.03
2017-08-06T00:12:13.681Z,17.07
2017-08-06T00:13:13.504Z,17.09
2017-08-06T00:14:13.637Z,17.13
2017-08-06T00:15:14.239Z,17.13
2017-08-06T00:16:13.999Z,17.2
2017-08-06T00:17:14.396Z,17.13
2017-08-06T00:18:14.412Z,17.18
2017-08-06T00:19:14.426Z,17.13
2017-08-06T00:20:14.204Z,17.18
2017-08-06T00:21:14.495Z,17.21
2017-08-06T00:22:14.548Z,17.25
2017-08-06T00:23:14.571Z,17.22
2017-08-06T00:24:14.615Z,17.22
2017-08-06T00:25:14.627Z,17.22
2017-08-06T00:26:15.000Z,17.25
2017-08-06T00:27:14.673Z,17.21
2017-08-06T00:28:15.003Z,17.24
2017-08-06T00:29:15.399Z,17.15
2017-08-06T00:30:15.094Z,17.25
2017-08-06T00:31:15.472Z,17.27
2017-08-06T00:32:15.510Z,17.3
2017-08-06T00:33:15.540Z,17.25
2017-08-06T00:34:15.534Z,17.27
2017-08-06T00:35:15.567Z,17.17
2017-08-06T00:36:15.604Z,17.15
2017-08-06T00:37:15.690Z,17.18
2017-08-06T00:38:15.366Z,17.18
2017-08-06T00:39:15.768Z,17.15
2017-08-06T00:40:15.833Z,17.09
2017-08-06T00:41:15.830Z,17.06
2017-08-06T00:42:15.865Z,17
2017-08-06T00:43:15.928Z,16.97
2017-08-06T00:44:15.634Z,17
2017-08-06T00:45:15.694Z,17.05
2017-08-06T00:46:16.368Z,16.99
2017-08-06T00:47:16.070Z,17.07
2017-08-06T00:48:16.750Z,17.05
2017-08-06T00:49:17.108Z,17.03
2017-08-06T00:50:17.113Z,17.09
2017-08-06T00:51:17.142Z,17.09
2017-08-06T00:52:17.241Z,17.05
2017-08-06T00:53:16.927Z,17.07
2017-08-06T00:54:17.266Z,17.03
2017-08-06T00:55:17.356Z,17.03
2017-08-06T00:56:17.028Z,16.95
2017-08-06T00:57:17.402Z,16.92
2017-08-06T00:58:18.145Z,16.84
2017-08-06T00:59:17.419Z,16.92
2017-08-06T01:00:17.474Z,16.8
2017-08-06T01:01:17.497Z,16.8
2017-08-06T01:02:17.571Z,16.73
2017-08-06T01:03:17.551Z,16.74
2017-08-06T01:04:17.608Z,16.66
2017-08-06T01:05:17.646Z,16.67
2017-08-06T01:06:17.357Z,16.65
2017-08-06T01:07:18.037Z,16.55
2017-08-06T01:08:17.740Z,16.44
2017-08-06T01:09:17.813Z,16.45
2017-08-06T01:10:17.867Z,16.37
2017-08-06T01:11:18.522Z,16.33
2017-08-06T01:12:18.541Z,16.37
2017-08-06T01:13:18.591Z,16.37
2017-08-06T01:14:18.631Z,16.36
2017-08-06T01:15:18.440Z,16.3
2017-08-06T01:16:18.429Z,16.32
2017-08-06T01:17:19.163Z,16.3
2017-08-06T01:18:19.145Z,16.34
2017-08-06T01:19:19.159Z,16.39
2017-08-06T01:20:19.193Z,16.37
2017-08-06T01:21:19.225Z,16.39
2017-08-06T01:22:18.970Z,16.45
2017-08-06T01:23:19.289Z,16.48
2017-08-06T01:24:19.021Z,16.52
2017-08-06T01:25:19.391Z,16.55
2017-08-06T01:26:19.110Z,16.62
2017-08-06T01:27:19.499Z,16.57
2017-08-06T01:28:19.506Z,16.67
2017-08-06T01:29:19.916Z,16.66
2017-08-06T01:30:19.617Z,16.72
2017-08-06T01:31:19.317Z,16.69
2017-08-06T01:32:19.962Z,16.74
2017-08-06T01:33:20.364Z,16.8
2017-08-06T01:34:20.024Z,16.8
2017-08-06T01:35:19.759Z,16.77
2017-08-06T01:36:20.424Z,16.81
2017-08-06T01:37:20.760Z,16.82
2017-08-06T01:38:20.498Z,16.74
2017-08-06T01:39:20.847Z,16.69
2017-08-06T01:40:21.199Z,16.8
2017-08-06T01:41:21.537Z,16.84
2017-08-06T01:42:21.569Z,16.72
2017-08-06T01:43:21.938Z,16.69
2017-08-06T01:44:21.357Z,16.67
2017-08-06T01:45:22.328Z,16.66
2017-08-06T01:46:22.069Z,16.58
2017-08-06T01:47:22.202Z,16.47
2017-08-06T01:48:22.227Z,16.45
2017-08-06T01:49:22.296Z,16.36
2017-08-06T01:50:22.334Z,16.27
2017-08-06T01:51:22.350Z,16.16
2017-08-06T01:52:22.705Z,16.16
2017-08-06T01:53:22.712Z,16.08
2017-08-06T01:54:23.061Z,15.96
2017-08-06T01:55:23.118Z,15.95
2017-08-06T01:56:23.507Z,15.88
2017-08-06T01:57:23.536Z,15.89
2017-08-06T01:58:23.561Z,15.83
2017-08-06T01:59:23.596Z,15.8
2017-08-06T02:00:23.650Z,15.83
2017-08-06T02:01:23.690Z,15.71
2017-08-06T02:02:23.724Z,15.71
2017-08-06T02:03:23.778Z,15.68
2017-08-06T02:04:23.762Z,15.74
2017-08-06T02:05:23.497Z,15.63
2017-08-06T02:06:23.197Z,15.65
2017-08-06T02:07:23.870Z,15.63
2017-08-06T02:08:23.932Z,15.62
2017-08-06T02:09:23.942Z,15.58
2017-08-06T02:10:23.662Z,15.55
2017-08-06T02:11:24.001Z,15.49
2017-08-06T02:12:23.749Z,15.37
2017-08-06T02:13:23.770Z,15.37
2017-08-06T02:14:24.124Z,15.37
2017-08-06T02:15:23.820Z,15.4
2017-08-06T02:16:23.883Z,15.4
2017-08-06T02:17:23.917Z,15.44
2017-08-06T02:18:24.239Z,15.43
2017-08-06T02:19:23.962Z,15.44
2017-08-06T02:20:24.048Z,15.44
2017-08-06T02:21:24.342Z,15.37
2017-08-06T02:22:24.053Z,15.41
2017-08-06T02:23:24.424Z,15.35
2017-08-06T02:24:24.521Z,15.33
2017-08-06T02:25:24.146Z,15.34
2017-08-06T02:26:24.822Z,15.25
2017-08-06T02:27:24.555Z,15.34
2017-08-06T02:28:25.223Z,15.22
2017-08-06T02:29:25.252Z,15.2
2017-08-06T02:30:25.312Z,15.2
2017-08-06T02:31:25.031Z,15.22
2017-08-06T02:32:25.373Z,15.34
2017-08-06T02:33:25.428Z,15.23
2017-08-06T02:34:25.142Z,15.34
2017-08-06T02:35:25.472Z,15.27
2017-08-06T02:36:25.524Z,15.23
2017-08-06T02:37:25.255Z,15.23
2017-08-06T02:38:25.272Z,15.2
2017-08-06T02:39:25.624Z,15.16
2017-08-06T02:40:25.659Z,15.25
2017-08-06T02:41:25.673Z,15.16
2017-08-06T02:42:25.385Z,15.1
2017-08-06T02:43:25.767Z,15.04
2017-08-06T02:44:25.776Z,15.08
2017-08-06T02:45:25.479Z,15.13
2017-08-06T02:46:25.557Z,15.1
2017-08-06T02:47:25.972Z,15.07
2017-08-06T02:48:25.989Z,15.04
2017-08-06T02:49:26.309Z,15.07
2017-08-06T02:50:26.070Z,15.1
2017-08-06T02:51:26.405Z,15
2017-08-06T02:52:26.417Z,15.1
2017-08-06T02:53:26.225Z,15.1
2017-08-06T02:54:26.572Z,15.04
2017-08-06T02:55:26.818Z,14.94
2017-08-06T02:56:26.253Z,14.98
2017-08-06T02:57:25.978Z,14.97
2017-08-06T02:58:26.619Z,14.9
2017-08-06T02:59:26.716Z,14.93
2017-08-06T03:00:26.712Z,14.9
2017-08-06T03:01:27.133Z,14.86
2017-08-06T03:02:27.550Z,14.83
2017-08-06T03:03:27.561Z,14.82
2017-08-06T03:04:27.620Z,14.85
2017-08-06T03:05:27.317Z,14.85
2017-08-06T03:06:27.697Z,14.8
2017-08-06T03:07:27.785Z,14.8
2017-08-06T03:08:28.225Z,14.8
2017-08-06T03:09:28.198Z,14.9
2017-08-06T03:10:27.951Z,14.86
2017-08-06T03:11:27.995Z,14.98
2017-08-06T03:12:28.292Z,14.95
2017-08-06T03:13:28.301Z,14.9
2017-08-06T03:14:28.392Z,14.94
2017-08-06T03:15:29.185Z,14.79
2017-08-06T03:16:29.234Z,14.89
2017-08-06T03:17:28.918Z,14.82
2017-08-06T03:18:29.303Z,14.85
2017-08-06T03:19:29.291Z,14.8
2017-08-06T03:20:29.353Z,14.85
2017-08-06T03:21:29.360Z,14.89
2017-08-06T03:22:29.395Z,14.85
2017-08-06T03:23:29.121Z,14.9
2017-08-06T03:24:29.463Z,14.8
2017-08-06T03:25:29.164Z,14.85
2017-08-06T03:26:29.239Z,14.94
2017-08-06T03:27:29.597Z,14.9
2017-08-06T03:28:29.634Z,14.79
2017-08-06T03:29:29.619Z,14.8
2017-08-06T03:30:29.944Z,14.82
2017-08-06T03:31:29.990Z,14.77
2017-08-06T03:32:30.057Z,14.79
2017-08-06T03:33:30.031Z,14.75
2017-08-06T03:34:30.439Z,14.71
2017-08-06T03:35:30.467Z,14.71
2017-08-06T03:36:30.491Z,14.77
2017-08-06T03:37:30.206Z,14.71
2017-08-06T03:38:30.698Z,14.8
2017-08-06T03:39:30.683Z,14.67
2017-08-06T03:40:30.419Z,14.7
2017-08-06T03:41:31.097Z,14.74
2017-08-06T03:42:31.100Z,14.71
2017-08-06T03:43:31.165Z,14.74
2017-08-06T03:44:31.162Z,14.7
2017-08-06T03:45:30.867Z,14.74
2017-08-06T03:46:31.275Z,14.74
2017-08-06T03:47:31.627Z,14.7
2017-08-06T03:48:31.619Z,14.77
2017-08-06T03:49:31.691Z,14.74
2017-08-06T03:50:32.028Z,14.74
2017-08-06T03:51:32.091Z,14.74
2017-08-06T03:52:32.130Z,14.69
2017-08-06T03:53:32.119Z,14.69
2017-08-06T03:54:32.179Z,14.74
2017-08-06T03:55:31.892Z,14.71
2017-08-06T03:56:32.221Z,14.82
2017-08-06T03:57:32.348Z,14.94
2017-08-06T03:58:32.635Z,14.94
2017-08-06T03:59:32.703Z,14.94
2017-08-06T04:00:32.700Z,14.94
2017-08-06T04:01:32.852Z,14.94
2017-08-06T04:02:32.797Z,14.93
2017-08-06T04:03:32.800Z,14.89
2017-08-06T04:04:32.793Z,14.82
2017-08-06T04:05:33.544Z,14.82
2017-08-06T04:06:33.220Z,14.79
2017-08-06T04:07:33.574Z,14.8
2017-08-06T04:08:33.262Z,14.82
2017-08-06T04:09:33.299Z,14.71
2017-08-06T04:10:33.685Z,14.71
2017-08-06T04:11:33.089Z,14.71
2017-08-06T04:12:33.773Z,14.69
2017-08-06T04:13:34.124Z,14.7
2017-08-06T04:14:34.139Z,14.74
2017-08-06T04:15:34.191Z,14.8
2017-08-06T04:16:34.209Z,14.71
2017-08-06T04:17:34.264Z,14.7
2017-08-06T04:18:33.969Z,14.71
2017-08-06T04:19:34.675Z,14.79
2017-08-06T04:20:34.417Z,14.77
2017-08-06T04:21:34.742Z,14.82
2017-08-06T04:22:34.788Z,14.82
2017-08-06T04:23:34.804Z,14.79
2017-08-06T04:24:34.504Z,14.75
2017-08-06T04:25:34.866Z,14.7
2017-08-06T04:26:34.615Z,14.67
2017-08-06T04:27:34.351Z,14.74
2017-08-06T04:28:35.054Z,14.7
2017-08-06T04:29:34.791Z,14.67
2017-08-06T04:30:34.800Z,14.7
2017-08-06T04:31:34.821Z,14.7
2017-08-06T04:32:35.166Z,14.67
2017-08-06T04:33:34.914Z,14.69
2017-08-06T04:34:35.234Z,14.7
2017-08-06T04:35:34.960Z,14.69
2017-08-06T04:36:35.340Z,14.75
2017-08-06T04:37:35.003Z,14.77
2017-08-06T04:38:35.365Z,14.69
2017-08-06T04:39:35.402Z,14.79
2017-08-06T04:40:35.440Z,14.8
2017-08-06T04:41:35.495Z,14.82
2017-08-06T04:42:34.859Z,14.83
2017-08-06T04:43:35.825Z,14.77
2017-08-06T04:44:35.900Z,14.82
2017-08-06T04:45:35.929Z,14.79
2017-08-06T04:46:35.615Z,14.79
2017-08-06T04:47:36.298Z,14.89
2017-08-06T04:48:36.062Z,14.83
2017-08-06T04:49:36.363Z,14.93
2017-08-06T04:50:36.409Z,14.94
2017-08-06T04:51:36.503Z,14.95
2017-08-06T04:52:36.237Z,14.94
2017-08-06T04:53:36.515Z,14.98
2017-08-06T04:54:36.568Z,14.93
2017-08-06T04:55:36.604Z,14.97
2017-08-06T04:56:36.636Z,14.98
2017-08-06T04:57:37.303Z,14.94
2017-08-06T04:58:37.543Z,15.01
2017-08-06T04:59:36.730Z,14.97
2017-08-06T05:00:36.771Z,14.94
2017-08-06T05:01:36.915Z,15.02
2017-08-06T05:02:36.810Z,15.08
2017-08-06T05:03:36.846Z,15.08
2017-08-06T05:04:36.899Z,15.18
2017-08-06T05:05:36.931Z,15.16
2017-08-06T05:06:36.641Z,15.18
2017-08-06T05:07:37.327Z,15.25
2017-08-06T05:08:37.316Z,15.25
2017-08-06T05:09:37.334Z,15.22
2017-08-06T05:10:37.381Z,15.26
2017-08-06T05:11:37.426Z,15.4
2017-08-06T05:12:37.446Z,15.38
2017-08-06T05:13:37.482Z,15.37
2017-08-06T05:14:37.499Z,15.4
2017-08-06T05:15:37.550Z,15.45
2017-08-06T05:16:37.581Z,15.44
2017-08-06T05:17:37.639Z,15.41
2017-08-06T05:18:37.635Z,15.44
2017-08-06T05:19:37.065Z,15.47
2017-08-06T05:20:37.434Z,15.45
2017-08-06T05:21:37.786Z,15.55
2017-08-06T05:22:37.546Z,15.56
2017-08-06T05:23:37.887Z,15.59
2017-08-06T05:24:37.910Z,15.59
2017-08-06T05:25:37.979Z,15.68
2017-08-06T05:26:38.043Z,15.74
2017-08-06T05:27:37.743Z,15.8
2017-08-06T05:28:38.112Z,15.77
2017-08-06T05:29:37.862Z,15.78
2017-08-06T05:30:37.916Z,15.89
2017-08-06T05:31:38.274Z,15.98
2017-08-06T05:32:38.337Z,16.13
2017-08-06T05:33:38.318Z,16.16
2017-08-06T05:34:38.359Z,16.29
2017-08-06T05:35:38.416Z,16.39
2017-08-06T05:36:38.741Z,16.58
2017-08-06T05:37:38.781Z,16.73
2017-08-06T05:38:38.826Z,16.82
2017-08-06T05:39:38.839Z,16.88
2017-08-06T05:40:38.877Z,16.82
2017-08-06T05:41:38.611Z,16.82
2017-08-06T05:42:38.652Z,16.87
2017-08-06T05:43:38.362Z,16.77
2017-08-06T05:44:39.123Z,16.74
2017-08-06T05:45:39.407Z,16.85
2017-08-06T05:46:39.459Z,17.17
2017-08-06T05:47:39.196Z,17.5
2017-08-06T05:48:39.206Z,17.81
2017-08-06T05:49:39.281Z,18.01
2017-08-06T05:50:39.672Z,18.38
2017-08-06T05:51:40.040Z,18.45
2017-08-06T05:52:40.054Z,18.44
2017-08-06T05:53:40.118Z,18.27
2017-08-06T05:54:39.819Z,18.06
2017-08-06T05:55:40.180Z,17.99
2017-08-06T05:56:40.213Z,17.68
2017-08-06T05:57:40.247Z,17.63
2017-08-06T05:58:40.281Z,17.54
2017-08-06T05:59:40.315Z,17.5
2017-08-06T06:00:40.374Z,17.46
2017-08-06T06:01:40.374Z,17.45
2017-08-06T06:02:40.445Z,17.42
2017-08-06T06:03:40.516Z,17.52
2017-08-06T06:04:40.603Z,17.77
2017-08-06T06:05:41.012Z,17.98
2017-08-06T06:06:41.047Z,18.05
2017-08-06T06:07:41.088Z,18.11
2017-08-06T06:08:40.851Z,18.19
2017-08-06T06:09:41.536Z,18.2
2017-08-06T06:10:41.245Z,18.32
2017-08-06T06:11:41.608Z,18.59
2017-08-06T06:12:41.639Z,18.91
2017-08-06T06:13:41.417Z,19.42
2017-08-06T06:14:41.804Z,20.34
2017-08-06T06:15:42.111Z,21.27
2017-08-06T06:16:42.164Z,22.38
2017-08-06T06:17:42.200Z,23.55
2017-08-06T06:18:41.919Z,24.51
2017-08-06T06:19:42.004Z,25.34
2017-08-06T06:20:42.710Z,25.85
2017-08-06T06:21:42.416Z,26.45
2017-08-06T06:22:42.806Z,27
2017-08-06T06:23:42.775Z,27.83
2017-08-06T06:24:42.852Z,28.23
2017-08-06T06:25:42.535Z,28.54
2017-08-06T06:26:42.907Z,28.73
2017-08-06T06:27:42.614Z,28.57
2017-08-06T06:28:42.993Z,28.58
2017-08-06T06:29:43.308Z,28.85
2017-08-06T06:30:43.381Z,28.46
2017-08-06T06:31:43.107Z,28.08
2017-08-06T06:32:43.521Z,27.91
2017-08-06T06:33:43.874Z,28.03
2017-08-06T06:34:44.561Z,28.43
2017-08-06T06:35:44.582Z,28.2
2017-08-06T06:36:44.617Z,28.06
2017-08-06T06:37:44.390Z,28.27
2017-08-06T06:38:44.711Z,28.64
2017-08-06T06:39:44.802Z,29.02
2017-08-06T06:40:44.507Z,29.32
2017-08-06T06:41:44.573Z,29.5
2017-08-06T06:42:45.233Z,29.91
2017-08-06T06:43:45.301Z,30.29
2017-08-06T06:44:45.986Z,30.75
2017-08-06T06:45:45.718Z,30.97
2017-08-06T06:46:46.084Z,31.31
2017-08-06T06:47:46.105Z,31.7
2017-08-06T06:48:46.159Z,31.95
2017-08-06T06:49:46.185Z,32.03
2017-08-06T06:50:46.224Z,31.95
2017-08-06T06:51:46.323Z,31.63
2017-08-06T06:52:46.318Z,31.47
2017-08-06T06:53:46.341Z,31.3
2017-08-06T06:54:46.412Z,31.53
2017-08-06T06:55:46.445Z,32
2017-08-06T06:56:46.486Z,32.38
2017-08-06T06:57:46.882Z,32.87
2017-08-06T06:58:46.611Z,33.24
2017-08-06T06:59:47.337Z,33.61
2017-08-06T07:00:47.397Z,33.85
2017-08-06T07:01:47.467Z,33.89
2017-08-06T07:02:47.453Z,33.71
2017-08-06T07:03:47.189Z,33.77
2017-08-06T07:04:47.910Z,33.87
2017-08-06T07:05:48.243Z,33.87
2017-08-06T07:06:48.331Z,33.65
2017-08-06T07:07:48.284Z,33.65
2017-08-06T07:08:48.324Z,33.48
2017-08-06T07:09:48.387Z,33.48
2017-08-06T07:10:48.729Z,33.41
2017-08-06T07:11:48.804Z,33.59
2017-08-06T07:12:48.815Z,33.77
2017-08-06T07:13:48.859Z,34
2017-08-06T07:14:48.614Z,34.1
2017-08-06T07:15:49.609Z,34.02
2017-08-06T07:16:49.643Z,34.29
2017-08-06T07:17:49.408Z,34.49
2017-08-06T07:18:49.384Z,34.69
2017-08-06T07:19:49.763Z,34.89
2017-08-06T07:20:49.484Z,34.97
2017-08-06T07:21:49.488Z,35.05
2017-08-06T07:22:49.893Z,35.18
2017-08-06T07:23:49.923Z,35.43
2017-08-06T07:24:49.969Z,35.58
2017-08-06T07:25:50.015Z,35.69
2017-08-06T07:26:50.406Z,35.72
2017-08-06T07:27:50.443Z,35.99
2017-08-06T07:28:49.901Z,35.99
2017-08-06T07:29:50.959Z,35.96
2017-08-06T07:30:50.624Z,35.87
2017-08-06T07:31:50.960Z,35.58
2017-08-06T07:32:50.387Z,35.61
2017-08-06T07:33:51.046Z,35.77
2017-08-06T07:34:51.451Z,36.14
2017-08-06T07:35:51.460Z,36.22
2017-08-06T07:36:51.518Z,36.34
2017-08-06T07:37:51.241Z,36.53
2017-08-06T07:38:51.613Z,36.92
2017-08-06T07:39:51.619Z,37.19
2017-08-06T07:40:51.689Z,37.56
2017-08-06T07:41:51.420Z,37.96
2017-08-06T07:42:51.478Z,38.06
2017-08-06T07:43:51.831Z,38.15
2017-08-06T07:44:51.888Z,38.33
2017-08-06T07:45:51.925Z,38.49
2017-08-06T07:46:52.032Z,38.68
2017-08-06T07:47:52.340Z,38.77
2017-08-06T07:48:52.087Z,38.73
2017-08-06T07:49:52.448Z,38.64
2017-08-06T07:50:52.491Z,38.56
2017-08-06T07:51:52.246Z,38.52
2017-08-06T07:52:52.560Z,38.27
2017-08-06T07:53:52.356Z,37.45
2017-08-06T07:54:52.361Z,37.23
2017-08-06T07:55:52.690Z,37.27
2017-08-06T07:56:52.784Z,37.23
2017-08-06T07:57:52.797Z,36.93
2017-08-06T07:58:52.825Z,36.34
2017-08-06T07:59:52.581Z,36.12
2017-08-06T08:00:53.021Z,36.14
2017-08-06T08:01:53.119Z,36.14
2017-08-06T08:02:53.392Z,36.08
2017-08-06T08:03:53.424Z,36.14
2017-08-06T08:04:53.479Z,36.06
2017-08-06T08:05:53.232Z,36.21
2017-08-06T08:06:53.236Z,36.43
2017-08-06T08:07:52.992Z,36.61
2017-08-06T08:08:53.628Z,36.73
2017-08-06T08:09:53.681Z,36.78
2017-08-06T08:10:53.714Z,36.7
2017-08-06T08:11:53.788Z,36.56
2017-08-06T08:12:53.519Z,36.52
2017-08-06T08:13:53.542Z,35.49
2017-08-06T08:14:53.958Z,34.17
2017-08-06T08:15:53.992Z,34.08
2017-08-06T08:16:53.745Z,34.71
2017-08-06T08:17:54.066Z,35.28
2017-08-06T08:18:54.147Z,35.6
2017-08-06T08:19:54.219Z,36.36
2017-08-06T08:20:54.591Z,36.96
2017-08-06T08:21:54.653Z,37.39
2017-08-06T08:22:54.697Z,37.93
2017-08-06T08:23:54.749Z,38.3
2017-08-06T08:24:54.484Z,38.76
2017-08-06T08:25:54.850Z,39.27
2017-08-06T08:26:54.864Z,39.65
2017-08-06T08:27:55.254Z,40.03
2017-08-06T08:28:55.025Z,40.31
2017-08-06T08:29:55.424Z,40.28
2017-08-06T08:30:54.827Z,40.2
2017-08-06T08:31:55.486Z,40.28
2017-08-06T08:32:55.252Z,40.48
2017-08-06T08:33:55.951Z,40.78
2017-08-06T08:34:55.405Z,39.9
2017-08-06T08:35:56.019Z,38.37
2017-08-06T08:36:56.066Z,37.75
2017-08-06T08:37:56.464Z,36.93
2017-08-06T08:38:56.486Z,36.36
2017-08-06T08:39:56.559Z,36.24
2017-08-06T08:40:56.257Z,36.43
2017-08-06T08:41:56.712Z,37.12
2017-08-06T08:42:56.358Z,37.9
2017-08-06T08:43:56.732Z,37.39
2017-08-06T08:44:56.782Z,36.99
2017-08-06T08:45:56.817Z,36.63
2017-08-06T08:46:56.825Z,35.84
2017-08-06T08:47:57.222Z,35.89
2017-08-06T08:48:56.948Z,36.34
2017-08-06T08:49:57.007Z,36.24
2017-08-06T08:50:57.672Z,35.12
2017-08-06T08:51:58.357Z,33.66
2017-08-06T08:52:58.360Z,33.02
2017-08-06T08:53:58.120Z,32.49
2017-08-06T08:54:58.470Z,32.37
2017-08-06T08:55:58.493Z,32.37
2017-08-06T08:56:58.274Z,32.23
2017-08-06T08:57:58.713Z,31.7
2017-08-06T08:58:59.205Z,31.33
2017-08-06T08:59:58.717Z,31.23
2017-08-06T09:00:58.738Z,30.75
2017-08-06T09:01:59.012Z,31.37
2017-08-06T09:02:58.849Z,32.71
2017-08-06T09:03:58.559Z,33.96
2017-08-06T09:04:58.888Z,33.68
2017-08-06T09:05:58.971Z,32.99
2017-08-06T09:06:58.997Z,33.31
2017-08-06T09:07:59.013Z,34.48
2017-08-06T09:08:58.776Z,35.3
2017-08-06T09:09:59.137Z,35.98
2017-08-06T09:10:59.222Z,37.18
2017-08-06T09:11:58.936Z,37.79
2017-08-06T09:12:59.268Z,38.3
2017-08-06T09:13:59.316Z,39
2017-08-06T09:14:59.136Z,39.64
2017-08-06T09:15:59.404Z,40.4
2017-08-06T09:16:59.186Z,40.96
2017-08-06T09:17:59.896Z,41.07
2017-08-06T09:18:59.903Z,41.26
2017-08-06T09:19:59.607Z,41.45
2017-08-06T09:20:59.688Z,41.8
2017-08-06T09:22:00.046Z,41.95
2017-08-06T09:23:00.758Z,41.75
2017-08-06T09:24:00.802Z,41.61
2017-08-06T09:25:01.342Z,41.96
2017-08-06T09:26:01.370Z,41.53
2017-08-06T09:27:01.143Z,40.1
2017-08-06T09:28:01.201Z,38.39
2017-08-06T09:29:01.530Z,36.47
2017-08-06T09:30:01.568Z,35.53
2017-08-06T09:31:01.604Z,35.8
2017-08-06T09:32:01.673Z,36.62
2017-08-06T09:33:01.697Z,37.59
2017-08-06T09:34:01.466Z,38.65
2017-08-06T09:35:01.824Z,39.49
2017-08-06T09:36:01.530Z,39.62
2017-08-06T09:37:01.566Z,39.3
2017-08-06T09:38:01.651Z,38.3
2017-08-06T09:39:01.696Z,37.02
2017-08-06T09:40:01.887Z,36.61
2017-08-06T09:41:02.135Z,36.17
2017-08-06T09:42:02.161Z,35.72
2017-08-06T09:43:02.204Z,35.11
2017-08-06T09:44:02.263Z,34.17
2017-08-06T09:45:02.762Z,33.21
2017-08-06T09:46:02.666Z,32.16
2017-08-06T09:47:02.726Z,32.24
2017-08-06T09:48:02.465Z,33.31
2017-08-06T09:49:02.781Z,34.67
2017-08-06T09:50:03.294Z,36.17
2017-08-06T09:51:03.466Z,37.31
2017-08-06T09:52:03.314Z,37.84
2017-08-06T09:53:03.425Z,37.05
2017-08-06T09:54:03.406Z,35.72
2017-08-06T09:55:03.454Z,34.54
2017-08-06T09:56:03.115Z,34.72
2017-08-06T09:57:03.432Z,35.53
2017-08-06T09:58:02.904Z,36.44
2017-08-06T09:59:03.604Z,37.46
2017-08-06T10:00:04.078Z,38.43
2017-08-06T10:01:04.235Z,39.31
2017-08-06T10:02:04.172Z,39.9
2017-08-06T10:03:04.544Z,39.4
2017-08-06T10:04:04.379Z,38.08
2017-08-06T10:05:04.716Z,37.39
2017-08-06T10:06:04.654Z,36.7
2017-08-06T10:07:04.770Z,35.77
2017-08-06T10:08:04.460Z,34.71
2017-08-06T10:09:05.134Z,33.2
2017-08-06T10:10:05.198Z,31.72
2017-08-06T10:11:04.892Z,30.44
2017-08-06T10:12:05.218Z,29.63
2017-08-06T10:13:05.246Z,30.34
2017-08-06T10:14:05.828Z,32
2017-08-06T10:15:05.389Z,33.75
2017-08-06T10:16:06.028Z,35.4
2017-08-06T10:17:05.434Z,36.83
2017-08-06T10:18:06.130Z,37.51
2017-08-06T10:19:06.173Z,37.71
2017-08-06T10:20:06.509Z,38.13
2017-08-06T10:21:06.526Z,39
2017-08-06T10:22:06.008Z,39.45
2017-08-06T10:23:06.032Z,39.93
2017-08-06T10:24:06.468Z,40.45
2017-08-06T10:25:06.352Z,41.2
2017-08-06T10:26:07.386Z,41.88
2017-08-06T10:27:06.987Z,41.78
2017-08-06T10:28:06.921Z,41.28
2017-08-06T10:29:06.816Z,40.72
2017-08-06T10:30:07.103Z,40.32
2017-08-06T10:31:07.009Z,40.25
2017-08-06T10:32:06.995Z,40.66
2017-08-06T10:33:06.759Z,41.04
2017-08-06T10:34:07.112Z,40.91
2017-08-06T10:35:06.653Z,41.13
2017-08-06T10:36:07.360Z,41.49
2017-08-06T10:37:07.756Z,41.89
2017-08-06T10:38:08.140Z,42.18
2017-08-06T10:39:07.522Z,42.15
2017-08-06T10:40:08.212Z,41.99
2017-08-06T10:41:07.899Z,41.82
2017-08-06T10:42:08.178Z,41.3
2017-08-06T10:43:07.999Z,40.7
2017-08-06T10:44:08.008Z,39.79
2017-08-06T10:45:08.047Z,39.31
2017-08-06T10:46:08.441Z,38.77
2017-08-06T10:47:08.817Z,37.51
2017-08-06T10:48:08.510Z,35.94
2017-08-06T10:49:08.325Z,34.22
2017-08-06T10:50:08.742Z,32.84
2017-08-06T10:51:08.744Z,31.68
2017-08-06T10:52:09.526Z,31.12
2017-08-06T10:53:09.516Z,31.9
2017-08-06T10:54:09.552Z,33.13
2017-08-06T10:55:09.336Z,34.36
2017-08-06T10:56:10.155Z,35.64
2017-08-06T10:57:09.852Z,36.81
2017-08-06T10:58:09.905Z,37.69
2017-08-06T10:59:10.617Z,38.35
2017-08-06T11:00:10.371Z,39.11
2017-08-06T11:01:10.796Z,39.75
2017-08-06T11:02:10.441Z,40.2
2017-08-06T11:03:10.496Z,40.47
2017-08-06T11:04:11.488Z,40.27
2017-08-06T11:05:11.558Z,39.18
2017-08-06T11:06:10.955Z,37.54
2017-08-06T11:07:11.986Z,35.86
2017-08-06T11:08:12.021Z,35.38
2017-08-06T11:09:12.079Z,35.76
2017-08-06T11:10:12.168Z,36.71
2017-08-06T11:11:12.162Z,37.24
2017-08-06T11:12:11.880Z,37.62
2017-08-06T11:13:12.243Z,37.75
2017-08-06T11:14:12.001Z,38.17
2017-08-06T11:15:12.105Z,38.43
2017-08-06T11:16:12.759Z,38.46
2017-08-06T11:17:12.832Z,38.77
2017-08-06T11:18:13.379Z,39.11
2017-08-06T11:19:12.881Z,39.49
2017-08-06T11:20:12.920Z,39.69
2017-08-06T11:21:12.950Z,39.42
2017-08-06T11:22:12.983Z,39.27
2017-08-06T11:23:12.399Z,39.4
2017-08-06T11:24:12.761Z,39.62
2017-08-06T11:25:13.756Z,39.71
2017-08-06T11:26:13.489Z,39.31
2017-08-06T11:27:13.544Z,39.15
2017-08-06T11:28:13.897Z,39.11
2017-08-06T11:29:13.642Z,39
2017-08-06T11:30:14.154Z,38.39
2017-08-06T11:31:14.549Z,37.07
2017-08-06T11:32:14.892Z,36.61
2017-08-06T11:33:14.979Z,36.75
2017-08-06T11:34:14.975Z,37.15
2017-08-06T11:35:14.717Z,37.49
2017-08-06T11:36:14.784Z,36.97
2017-08-06T11:37:15.163Z,35.67
2017-08-06T11:38:14.548Z,35.24
2017-08-06T11:39:15.218Z,34.3
2017-08-06T11:40:15.301Z,33.2
2017-08-06T11:41:14.979Z,31.81
2017-08-06T11:42:15.378Z,31.59
2017-08-06T11:43:15.384Z,31.38
2017-08-06T11:44:15.121Z,30.62
2017-08-06T11:45:16.185Z,29.79
2017-08-06T11:46:16.236Z,29.05
2017-08-06T11:47:15.953Z,28.41
2017-08-06T11:48:15.995Z,27.96
2017-08-06T11:49:16.654Z,27.51
2017-08-06T11:50:16.437Z,27.37
2017-08-06T11:51:16.811Z,27.04
2017-08-06T11:52:17.481Z,26.75
2017-08-06T11:53:17.561Z,26.52
2017-08-06T11:54:17.625Z,26.34
2017-08-06T11:55:17.992Z,26.16
2017-08-06T11:56:18.022Z,26.03
2017-08-06T11:57:18.090Z,25.97
2017-08-06T11:58:18.149Z,25.75
2017-08-06T11:59:18.145Z,25.66
2017-08-06T12:00:18.520Z,25.49
2017-08-06T12:01:18.291Z,25.45
2017-08-06T12:02:18.307Z,25.41
2017-08-06T12:03:18.295Z,25.26
2017-08-06T12:04:18.056Z,25.23
2017-08-06T12:05:18.076Z,25.2
2017-08-06T12:06:18.435Z,25.27
2017-08-06T12:07:18.592Z,25.23
2017-08-06T12:08:18.994Z,25.15
2017-08-06T12:09:18.708Z,25.05
2017-08-06T12:10:19.063Z,24.93
2017-08-06T12:11:19.093Z,24.92
2017-08-06T12:12:19.153Z,24.83
2017-08-06T12:13:18.549Z,24.9
2017-08-06T12:14:18.939Z,24.8
2017-08-06T12:15:19.456Z,24.61
2017-08-06T12:16:19.356Z,24.64
2017-08-06T12:17:19.387Z,24.74
2017-08-06T12:18:19.431Z,24.89
2017-08-06T12:19:20.128Z,24.96
2017-08-06T12:20:20.164Z,24.94
2017-08-06T12:21:20.206Z,25.11
2017-08-06T12:22:20.225Z,25.27
2017-08-06T12:23:20.295Z,25.3
2017-08-06T12:24:19.975Z,25.19
2017-08-06T12:25:20.364Z,25.05
2017-08-06T12:26:20.424Z,24.85
2017-08-06T12:27:20.128Z,24.8
2017-08-06T12:28:20.859Z,24.63
2017-08-06T12:29:20.544Z,24.48
2017-08-06T12:30:20.909Z,24.32
2017-08-06T12:31:20.952Z,24.4
2017-08-06T12:32:21.652Z,24.3
2017-08-06T12:33:21.384Z,24.32
2017-08-06T12:34:22.068Z,24.12
2017-08-06T12:35:22.105Z,24.14
2017-08-06T12:36:22.501Z,24.03
2017-08-06T12:37:22.821Z,24
2017-08-06T12:38:23.195Z,23.85
2017-08-06T12:39:23.212Z,23.81
2017-08-06T12:40:22.665Z,23.79
2017-08-06T12:41:23.018Z,23.82
2017-08-06T12:42:23.371Z,23.78
2017-08-06T12:43:23.479Z,23.7
2017-08-06T12:44:23.541Z,23.77
2017-08-06T12:45:23.736Z,23.78
2017-08-06T12:46:24.079Z,23.67
2017-08-06T12:47:24.095Z,23.75
2017-08-06T12:48:24.125Z,23.71
2017-08-06T12:49:23.870Z,23.7
2017-08-06T12:50:24.062Z,23.75
2017-08-06T12:51:24.447Z,23.63
2017-08-06T12:52:25.156Z,23.59
2017-08-06T12:53:24.875Z,23.62
2017-08-06T12:54:25.511Z,23.52
2017-08-06T12:55:25.376Z,23.62
2017-08-06T12:56:25.770Z,23.71
2017-08-06T12:57:26.140Z,23.71